sensor_id;sensor_type;location;lat;lon;timestamp;temperature;humidity
48162;DHT22;33950;48.154;16.316;2023-07-08T00:02:28;21.20;80.00
48162;DHT22;33950;48.154;16.316;2023-07-08T00:05:15;21.00;80.10
48162;DHT22;33950;48.154;16.316;2023-07-08T00:08:01;20.90;80.30
48162;DHT22;33950;48.154;16.316;2023-07-08T00:10:47;20.80;80.50
48162;DHT22;33950;48.154;16.316;2023-07-08T00:13:34;20.60;80.40
48162;DHT22;33950;48.154;16.316;2023-07-08T00:16:20;20.30;80.70
48162;DHT22;33950;48.154;16.316;2023-07-08T00:19:08;20.10;80.00
48162;DHT22;33950;48.154;16.316;2023-07-08T00:21:54;20.10;79.70
48162;DHT22;33950;48.154;16.316;2023-07-08T00:24:41;20.20;79.60
48162;DHT22;33950;48.154;16.316;2023-07-08T00:27:27;20.30;79.10
48162;DHT22;33950;48.154;16.316;2023-07-08T00:30:19;20.40;80.90
48162;DHT22;33950;48.154;16.316;2023-07-08T00:33:05;20.50;80.90
48162;DHT22;33950;48.154;16.316;2023-07-08T00:35:51;20.70;81.00
48162;DHT22;33950;48.154;16.316;2023-07-08T00:38:37;20.80;80.70
48162;DHT22;33950;48.154;16.316;2023-07-08T00:41:25;20.90;80.50
48162;DHT22;33950;48.154;16.316;2023-07-08T00:44:12;20.90;80.20
48162;DHT22;33950;48.154;16.316;2023-07-08T00:47:02;20.90;79.50
48162;DHT22;33950;48.154;16.316;2023-07-08T00:49:50;20.80;79.90
48162;DHT22;33950;48.154;16.316;2023-07-08T00:52:37;20.70;80.00
48162;DHT22;33950;48.154;16.316;2023-07-08T00:55:23;20.60;80.20
48162;DHT22;33950;48.154;16.316;2023-07-08T00:58:09;20.40;80.60
48162;DHT22;33950;48.154;16.316;2023-07-08T01:00:55;20.20;80.80
48162;DHT22;33950;48.154;16.316;2023-07-08T01:03:45;19.90;81.70
48162;DHT22;33950;48.154;16.316;2023-07-08T01:06:35;19.60;82.10
48162;DHT22;33950;48.154;16.316;2023-07-08T01:09:26;19.40;82.10
48162;DHT22;33950;48.154;16.316;2023-07-08T01:12:14;19.40;81.60
48162;DHT22;33950;48.154;16.316;2023-07-08T01:15:02;19.40;82.40
48162;DHT22;33950;48.154;16.316;2023-07-08T01:17:48;19.40;82.50
48162;DHT22;33950;48.154;16.316;2023-07-08T01:20:40;19.50;83.30
48162;DHT22;33950;48.154;16.316;2023-07-08T01:23:27;19.50;83.60
48162;DHT22;33950;48.154;16.316;2023-07-08T01:26:13;19.50;83.50
48162;DHT22;33950;48.154;16.316;2023-07-08T01:28:59;19.50;82.70
48162;DHT22;33950;48.154;16.316;2023-07-08T01:31:45;19.50;82.20
48162;DHT22;33950;48.154;16.316;2023-07-08T01:34:34;19.40;82.90
48162;DHT22;33950;48.154;16.316;2023-07-08T01:37:23;19.40;82.20
48162;DHT22;33950;48.154;16.316;2023-07-08T01:40:25;19.30;82.40
48162;DHT22;33950;48.154;16.316;2023-07-08T01:43:11;19.40;82.90
48162;DHT22;33950;48.154;16.316;2023-07-08T01:45:57;19.50;82.40
48162;DHT22;33950;48.154;16.316;2023-07-08T01:48:45;19.60;82.20
48162;DHT22;33950;48.154;16.316;2023-07-08T01:51:31;19.90;82.40
48162;DHT22;33950;48.154;16.316;2023-07-08T01:54:17;19.90;81.80
48162;DHT22;33950;48.154;16.316;2023-07-08T01:57:05;20.00;81.60
48162;DHT22;33950;48.154;16.316;2023-07-08T01:59:51;19.90;81.60
48162;DHT22;33950;48.154;16.316;2023-07-08T02:02:37;19.80;81.40
48162;DHT22;33950;48.154;16.316;2023-07-08T02:05:23;19.80;81.50
48162;DHT22;33950;48.154;16.316;2023-07-08T02:08:09;19.80;81.80
48162;DHT22;33950;48.154;16.316;2023-07-08T02:10:56;19.60;81.70
48162;DHT22;33950;48.154;16.316;2023-07-08T02:13:44;19.50;81.80
48162;DHT22;33950;48.154;16.316;2023-07-08T02:16:30;19.50;81.80
48162;DHT22;33950;48.154;16.316;2023-07-08T02:19:16;19.30;81.80
48162;DHT22;33950;48.154;16.316;2023-07-08T02:22:02;19.20;82.30
48162;DHT22;33950;48.154;16.316;2023-07-08T02:24:50;19.40;82.30
48162;DHT22;33950;48.154;16.316;2023-07-08T02:27:36;19.50;82.00
48162;DHT22;33950;48.154;16.316;2023-07-08T02:30:23;19.50;81.10
48162;DHT22;33950;48.154;16.316;2023-07-08T02:33:09;19.50;82.00
48162;DHT22;33950;48.154;16.316;2023-07-08T02:35:55;19.50;81.80
48162;DHT22;33950;48.154;16.316;2023-07-08T02:38:41;19.50;81.50
48162;DHT22;33950;48.154;16.316;2023-07-08T02:41:27;19.50;81.90
48162;DHT22;33950;48.154;16.316;2023-07-08T02:44:13;19.60;81.80
48162;DHT22;33950;48.154;16.316;2023-07-08T02:47:00;19.50;81.30
48162;DHT22;33950;48.154;16.316;2023-07-08T02:49:46;19.50;82.00
48162;DHT22;33950;48.154;16.316;2023-07-08T02:52:32;19.60;81.50
48162;DHT22;33950;48.154;16.316;2023-07-08T02:55:18;19.60;81.90
48162;DHT22;33950;48.154;16.316;2023-07-08T02:58:03;19.50;81.50
48162;DHT22;33950;48.154;16.316;2023-07-08T03:00:51;19.30;82.30
48162;DHT22;33950;48.154;16.316;2023-07-08T03:03:38;19.10;82.40
48162;DHT22;33950;48.154;16.316;2023-07-08T03:06:24;19.00;82.90
48162;DHT22;33950;48.154;16.316;2023-07-08T03:09:11;19.10;83.00
48162;DHT22;33950;48.154;16.316;2023-07-08T03:11:58;19.20;83.40
48162;DHT22;33950;48.154;16.316;2023-07-08T03:14:43;19.30;83.50
48162;DHT22;33950;48.154;16.316;2023-07-08T03:17:30;19.40;83.20
48162;DHT22;33950;48.154;16.316;2023-07-08T03:20:17;19.50;83.10
48162;DHT22;33950;48.154;16.316;2023-07-08T03:23:03;19.50;82.80
48162;DHT22;33950;48.154;16.316;2023-07-08T03:25:49;19.50;82.20
48162;DHT22;33950;48.154;16.316;2023-07-08T03:28:35;19.40;82.90
48162;DHT22;33950;48.154;16.316;2023-07-08T03:31:21;19.40;83.10
48162;DHT22;33950;48.154;16.316;2023-07-08T03:34:07;19.20;84.00
48162;DHT22;33950;48.154;16.316;2023-07-08T03:36:55;19.20;84.50
48162;DHT22;33950;48.154;16.316;2023-07-08T03:39:41;19.20;84.40
48162;DHT22;33950;48.154;16.316;2023-07-08T03:42:27;19.30;84.30
48162;DHT22;33950;48.154;16.316;2023-07-08T03:45:13;19.20;85.00
48162;DHT22;33950;48.154;16.316;2023-07-08T03:47:59;19.20;85.10
48162;DHT22;33950;48.154;16.316;2023-07-08T03:50:45;19.30;85.00
48162;DHT22;33950;48.154;16.316;2023-07-08T03:53:32;19.30;85.10
48162;DHT22;33950;48.154;16.316;2023-07-08T03:56:18;19.20;85.50
48162;DHT22;33950;48.154;16.316;2023-07-08T03:59:04;19.20;85.30
48162;DHT22;33950;48.154;16.316;2023-07-08T04:01:50;19.30;84.90
48162;DHT22;33950;48.154;16.316;2023-07-08T04:04:36;19.40;84.50
48162;DHT22;33950;48.154;16.316;2023-07-08T04:07:23;19.50;84.80
48162;DHT22;33950;48.154;16.316;2023-07-08T04:10:10;19.50;85.20
48162;DHT22;33950;48.154;16.316;2023-07-08T04:12:56;19.60;85.50
48162;DHT22;33950;48.154;16.316;2023-07-08T04:15:42;19.70;85.50
48162;DHT22;33950;48.154;16.316;2023-07-08T04:18:28;19.70;85.60
48162;DHT22;33950;48.154;16.316;2023-07-08T04:21:14;19.70;85.70
48162;DHT22;33950;48.154;16.316;2023-07-08T04:24:00;19.60;86.00
48162;DHT22;33950;48.154;16.316;2023-07-08T04:26:47;19.60;85.10
48162;DHT22;33950;48.154;16.316;2023-07-08T04:29:33;19.70;84.80
48162;DHT22;33950;48.154;16.316;2023-07-08T04:32:20;19.70;84.70
48162;DHT22;33950;48.154;16.316;2023-07-08T04:35:10;19.80;84.80
48162;DHT22;33950;48.154;16.316;2023-07-08T04:37:56;19.80;85.10
48162;DHT22;33950;48.154;16.316;2023-07-08T04:40:42;19.90;85.30
48162;DHT22;33950;48.154;16.316;2023-07-08T04:43:29;19.90;85.40
48162;DHT22;33950;48.154;16.316;2023-07-08T04:46:17;20.00;85.40
48162;DHT22;33950;48.154;16.316;2023-07-08T04:49:04;20.00;85.40
48162;DHT22;33950;48.154;16.316;2023-07-08T04:51:51;20.10;85.10
48162;DHT22;33950;48.154;16.316;2023-07-08T04:54:37;20.10;85.10
48162;DHT22;33950;48.154;16.316;2023-07-08T04:57:23;20.20;85.10
48162;DHT22;33950;48.154;16.316;2023-07-08T05:00:12;20.20;85.00
48162;DHT22;33950;48.154;16.316;2023-07-08T05:03:01;20.20;85.10
48162;DHT22;33950;48.154;16.316;2023-07-08T05:05:47;20.30;85.50
48162;DHT22;33950;48.154;16.316;2023-07-08T05:08:33;20.30;85.20
48162;DHT22;33950;48.154;16.316;2023-07-08T05:11:18;20.30;85.00
48162;DHT22;33950;48.154;16.316;2023-07-08T05:14:05;20.40;84.80
48162;DHT22;33950;48.154;16.316;2023-07-08T05:16:52;20.40;85.50
48162;DHT22;33950;48.154;16.316;2023-07-08T05:19:38;20.40;84.60
48162;DHT22;33950;48.154;16.316;2023-07-08T05:22:27;20.30;84.50
48162;DHT22;33950;48.154;16.316;2023-07-08T05:25:13;20.30;84.50
48162;DHT22;33950;48.154;16.316;2023-07-08T05:27:59;20.20;84.60
48162;DHT22;33950;48.154;16.316;2023-07-08T05:30:45;20.30;84.30
48162;DHT22;33950;48.154;16.316;2023-07-08T05:33:33;20.30;84.40
48162;DHT22;33950;48.154;16.316;2023-07-08T05:36:19;20.30;84.50
48162;DHT22;33950;48.154;16.316;2023-07-08T05:39:05;20.40;84.80
48162;DHT22;33950;48.154;16.316;2023-07-08T05:41:51;20.50;84.80
48162;DHT22;33950;48.154;16.316;2023-07-08T05:44:37;20.60;85.10
48162;DHT22;33950;48.154;16.316;2023-07-08T05:47:23;20.60;85.20
48162;DHT22;33950;48.154;16.316;2023-07-08T05:50:10;20.60;84.70
48162;DHT22;33950;48.154;16.316;2023-07-08T05:52:56;20.70;84.60
48162;DHT22;33950;48.154;16.316;2023-07-08T05:55:42;20.70;84.40
48162;DHT22;33950;48.154;16.316;2023-07-08T05:58:28;20.70;85.30
48162;DHT22;33950;48.154;16.316;2023-07-08T06:01:14;20.70;84.70
48162;DHT22;33950;48.154;16.316;2023-07-08T06:04:00;20.70;84.60
48162;DHT22;33950;48.154;16.316;2023-07-08T06:06:47;20.70;84.20
48162;DHT22;33950;48.154;16.316;2023-07-08T06:09:33;20.70;82.50
48162;DHT22;33950;48.154;16.316;2023-07-08T06:12:19;20.80;83.70
48162;DHT22;33950;48.154;16.316;2023-07-08T06:15:05;20.90;84.20
48162;DHT22;33950;48.154;16.316;2023-07-08T06:17:51;20.90;83.70
48162;DHT22;33950;48.154;16.316;2023-07-08T06:20:37;20.90;83.60
48162;DHT22;33950;48.154;16.316;2023-07-08T06:23:25;20.90;84.60
48162;DHT22;33950;48.154;16.316;2023-07-08T06:26:11;20.90;85.30
48162;DHT22;33950;48.154;16.316;2023-07-08T06:28:56;20.90;85.70
48162;DHT22;33950;48.154;16.316;2023-07-08T06:31:42;20.90;85.30
48162;DHT22;33950;48.154;16.316;2023-07-08T06:34:28;20.90;82.50
48162;DHT22;33950;48.154;16.316;2023-07-08T06:37:14;21.00;83.10
48162;DHT22;33950;48.154;16.316;2023-07-08T06:40:01;21.00;82.30
48162;DHT22;33950;48.154;16.316;2023-07-08T06:42:48;21.10;82.80
48162;DHT22;33950;48.154;16.316;2023-07-08T06:45:34;21.10;83.30
48162;DHT22;33950;48.154;16.316;2023-07-08T06:48:20;21.10;82.90
48162;DHT22;33950;48.154;16.316;2023-07-08T06:51:07;21.10;81.90
48162;DHT22;33950;48.154;16.316;2023-07-08T06:53:53;21.10;82.60
48162;DHT22;33950;48.154;16.316;2023-07-08T06:56:41;21.20;82.60
48162;DHT22;33950;48.154;16.316;2023-07-08T06:59:26;21.10;82.30
48162;DHT22;33950;48.154;16.316;2023-07-08T07:02:14;21.10;84.30
48162;DHT22;33950;48.154;16.316;2023-07-08T07:05:00;21.10;84.90
48162;DHT22;33950;48.154;16.316;2023-07-08T07:07:46;21.00;83.70
48162;DHT22;33950;48.154;16.316;2023-07-08T07:10:31;21.00;83.10
48162;DHT22;33950;48.154;16.316;2023-07-08T07:13:19;21.10;82.50
48162;DHT22;33950;48.154;16.316;2023-07-08T07:16:05;21.20;82.00
48162;DHT22;33950;48.154;16.316;2023-07-08T07:18:51;21.30;82.60
48162;DHT22;33950;48.154;16.316;2023-07-08T07:21:37;21.30;83.30
48162;DHT22;33950;48.154;16.316;2023-07-08T07:24:23;21.40;84.40
48162;DHT22;33950;48.154;16.316;2023-07-08T07:27:09;21.40;83.80
48162;DHT22;33950;48.154;16.316;2023-07-08T07:29:56;21.40;84.30
48162;DHT22;33950;48.154;16.316;2023-07-08T07:32:45;21.40;83.30
48162;DHT22;33950;48.154;16.316;2023-07-08T07:35:31;21.50;82.40
48162;DHT22;33950;48.154;16.316;2023-07-08T07:38:17;21.50;82.70
48162;DHT22;33950;48.154;16.316;2023-07-08T07:41:02;21.60;83.00
48162;DHT22;33950;48.154;16.316;2023-07-08T07:43:51;21.70;84.90
48162;DHT22;33950;48.154;16.316;2023-07-08T07:46:39;21.70;84.70
48162;DHT22;33950;48.154;16.316;2023-07-08T07:49:25;21.60;85.60
48162;DHT22;33950;48.154;16.316;2023-07-08T07:52:11;21.70;84.60
48162;DHT22;33950;48.154;16.316;2023-07-08T07:54:57;21.70;85.10
48162;DHT22;33950;48.154;16.316;2023-07-08T07:57:43;21.70;85.00
48162;DHT22;33950;48.154;16.316;2023-07-08T08:00:31;21.70;86.50
48162;DHT22;33950;48.154;16.316;2023-07-08T08:03:18;21.70;85.10
48162;DHT22;33950;48.154;16.316;2023-07-08T08:06:04;21.70;85.80
48162;DHT22;33950;48.154;16.316;2023-07-08T08:08:50;21.80;85.40
48162;DHT22;33950;48.154;16.316;2023-07-08T08:11:36;21.90;86.00
48162;DHT22;33950;48.154;16.316;2023-07-08T08:14:22;21.90;87.00
48162;DHT22;33950;48.154;16.316;2023-07-08T08:17:08;21.90;85.30
48162;DHT22;33950;48.154;16.316;2023-07-08T08:19:55;22.00;83.70
48162;DHT22;33950;48.154;16.316;2023-07-08T08:22:42;22.10;84.60
48162;DHT22;33950;48.154;16.316;2023-07-08T08:25:28;22.40;84.50
48162;DHT22;33950;48.154;16.316;2023-07-08T08:28:14;22.30;83.70
48162;DHT22;33950;48.154;16.316;2023-07-08T08:31:00;22.30;83.60
48162;DHT22;33950;48.154;16.316;2023-07-08T08:33:46;22.40;83.30
48162;DHT22;33950;48.154;16.316;2023-07-08T08:36:35;22.50;83.70
48162;DHT22;33950;48.154;16.316;2023-07-08T08:39:21;22.60;84.50
48162;DHT22;33950;48.154;16.316;2023-07-08T08:42:08;22.60;84.70
48162;DHT22;33950;48.154;16.316;2023-07-08T08:44:59;22.60;84.00
48162;DHT22;33950;48.154;16.316;2023-07-08T08:47:47;22.70;86.00
48162;DHT22;33950;48.154;16.316;2023-07-08T08:50:35;22.70;87.20
48162;DHT22;33950;48.154;16.316;2023-07-08T08:53:23;22.70;85.30
48162;DHT22;33950;48.154;16.316;2023-07-08T08:56:12;23.70;87.70
48162;DHT22;33950;48.154;16.316;2023-07-08T08:59:02;22.80;87.10
48162;DHT22;33950;48.154;16.316;2023-07-08T09:01:49;22.80;87.00
48162;DHT22;33950;48.154;16.316;2023-07-08T09:04:35;22.90;86.70
48162;DHT22;33950;48.154;16.316;2023-07-08T09:07:22;22.80;86.40
48162;DHT22;33950;48.154;16.316;2023-07-08T09:10:11;22.90;84.60
48162;DHT22;33950;48.154;16.316;2023-07-08T09:12:59;23.00;86.80
48162;DHT22;33950;48.154;16.316;2023-07-08T09:15:48;23.00;84.10
48162;DHT22;33950;48.154;16.316;2023-07-08T09:18:38;23.20;84.80
48162;DHT22;33950;48.154;16.316;2023-07-08T09:21:27;23.20;84.40
48162;DHT22;33950;48.154;16.316;2023-07-08T09:24:16;23.20;84.40
48162;DHT22;33950;48.154;16.316;2023-07-08T09:27:04;23.30;84.50
48162;DHT22;33950;48.154;16.316;2023-07-08T09:29:50;23.30;83.80
48162;DHT22;33950;48.154;16.316;2023-07-08T09:32:36;23.40;82.50
48162;DHT22;33950;48.154;16.316;2023-07-08T09:35:24;23.50;81.90
48162;DHT22;33950;48.154;16.316;2023-07-08T09:38:13;23.70;80.90
48162;DHT22;33950;48.154;16.316;2023-07-08T09:40:59;23.90;81.20
48162;DHT22;33950;48.154;16.316;2023-07-08T09:43:46;23.90;82.60
48162;DHT22;33950;48.154;16.316;2023-07-08T09:46:36;23.90;83.70
48162;DHT22;33950;48.154;16.316;2023-07-08T09:49:23;23.90;81.40
48162;DHT22;33950;48.154;16.316;2023-07-08T09:52:11;24.00;80.80
48162;DHT22;33950;48.154;16.316;2023-07-08T09:54:57;24.20;78.70
48162;DHT22;33950;48.154;16.316;2023-07-08T09:57:43;24.20;80.70
48162;DHT22;33950;48.154;16.316;2023-07-08T10:00:33;24.20;83.30
48162;DHT22;33950;48.154;16.316;2023-07-08T10:03:24;24.20;81.40
48162;DHT22;33950;48.154;16.316;2023-07-08T10:06:14;24.30;80.60
48162;DHT22;33950;48.154;16.316;2023-07-08T10:09:02;24.40;79.30
48162;DHT22;33950;48.154;16.316;2023-07-08T10:11:51;24.50;77.90
48162;DHT22;33950;48.154;16.316;2023-07-08T10:14:39;24.60;76.90
48162;DHT22;33950;48.154;16.316;2023-07-08T10:17:28;24.70;75.90
48162;DHT22;33950;48.154;16.316;2023-07-08T10:20:15;24.80;75.70
48162;DHT22;33950;48.154;16.316;2023-07-08T10:23:04;24.80;75.20
48162;DHT22;33950;48.154;16.316;2023-07-08T10:25:53;24.90;75.60
48162;DHT22;33950;48.154;16.316;2023-07-08T10:28:43;25.00;74.00
48162;DHT22;33950;48.154;16.316;2023-07-08T10:31:31;25.10;76.00
48162;DHT22;33950;48.154;16.316;2023-07-08T10:34:24;25.20;75.30
48162;DHT22;33950;48.154;16.316;2023-07-08T10:37:15;25.30;75.10
48162;DHT22;33950;48.154;16.316;2023-07-08T10:40:25;25.40;74.20
48162;DHT22;33950;48.154;16.316;2023-07-08T10:43:18;25.60;78.00
48162;DHT22;33950;48.154;16.316;2023-07-08T10:46:14;25.70;77.90
48162;DHT22;33950;48.154;16.316;2023-07-08T10:52:10;25.90;71.60
48162;DHT22;33950;48.154;16.316;2023-07-08T10:55:01;26.00;71.60
48162;DHT22;33950;48.154;16.316;2023-07-08T10:57:57;26.20;70.80
48162;DHT22;33950;48.154;16.316;2023-07-08T11:00:49;26.40;72.00
48162;DHT22;33950;48.154;16.316;2023-07-08T11:03:46;26.50;70.60
48162;DHT22;33950;48.154;16.316;2023-07-08T11:06:40;26.60;71.30
48162;DHT22;33950;48.154;16.316;2023-07-08T11:09:29;26.80;71.60
48162;DHT22;33950;48.154;16.316;2023-07-08T11:12:20;26.90;72.20
48162;DHT22;33950;48.154;16.316;2023-07-08T11:15:13;27.00;72.00
48162;DHT22;33950;48.154;16.316;2023-07-08T11:18:02;27.10;73.70
48162;DHT22;33950;48.154;16.316;2023-07-08T11:20:50;27.20;74.00
48162;DHT22;33950;48.154;16.316;2023-07-08T11:23:38;27.30;74.60
48162;DHT22;33950;48.154;16.316;2023-07-08T11:26:26;27.50;74.00
48162;DHT22;33950;48.154;16.316;2023-07-08T11:29:15;27.60;67.20
48162;DHT22;33950;48.154;16.316;2023-07-08T11:32:03;27.70;70.40
48162;DHT22;33950;48.154;16.316;2023-07-08T11:34:50;27.80;70.80
48162;DHT22;33950;48.154;16.316;2023-07-08T11:37:36;27.90;68.40
48162;DHT22;33950;48.154;16.316;2023-07-08T11:40:23;28.10;67.60
48162;DHT22;33950;48.154;16.316;2023-07-08T11:43:12;28.30;66.10
48162;DHT22;33950;48.154;16.316;2023-07-08T11:46:02;28.60;67.00
48162;DHT22;33950;48.154;16.316;2023-07-08T11:48:50;29.10;64.20
48162;DHT22;33950;48.154;16.316;2023-07-08T11:51:37;29.70;63.80
48162;DHT22;33950;48.154;16.316;2023-07-08T11:54:26;30.00;64.40
48162;DHT22;33950;48.154;16.316;2023-07-08T11:57:16;30.40;62.20
48162;DHT22;33950;48.154;16.316;2023-07-08T12:00:11;30.70;63.10
48162;DHT22;33950;48.154;16.316;2023-07-08T12:03:03;31.00;62.50
48162;DHT22;33950;48.154;16.316;2023-07-08T12:05:49;31.30;62.20
48162;DHT22;33950;48.154;16.316;2023-07-08T12:08:36;31.50;60.80
48162;DHT22;33950;48.154;16.316;2023-07-08T12:11:24;31.60;61.60
48162;DHT22;33950;48.154;16.316;2023-07-08T12:14:10;31.60;61.70
48162;DHT22;33950;48.154;16.316;2023-07-08T12:16:57;31.90;60.00
48162;DHT22;33950;48.154;16.316;2023-07-08T12:19:43;31.80;61.90
48162;DHT22;33950;48.154;16.316;2023-07-08T12:22:30;32.00;60.50
48162;DHT22;33950;48.154;16.316;2023-07-08T12:25:18;32.30;61.30
48162;DHT22;33950;48.154;16.316;2023-07-08T12:28:04;32.40;61.40
48162;DHT22;33950;48.154;16.316;2023-07-08T12:30:51;32.40;58.80
48162;DHT22;33950;48.154;16.316;2023-07-08T12:33:38;32.40;58.90
48162;DHT22;33950;48.154;16.316;2023-07-08T12:36:27;32.40;61.60
48162;DHT22;33950;48.154;16.316;2023-07-08T12:39:14;32.60;60.60
48162;DHT22;33950;48.154;16.316;2023-07-08T12:42:00;32.50;60.80
48162;DHT22;33950;48.154;16.316;2023-07-08T12:44:46;32.20;58.40
48162;DHT22;33950;48.154;16.316;2023-07-08T12:47:34;31.90;60.50
48162;DHT22;33950;48.154;16.316;2023-07-08T12:50:21;32.00;60.90
48162;DHT22;33950;48.154;16.316;2023-07-08T12:53:07;32.30;59.90
48162;DHT22;33950;48.154;16.316;2023-07-08T12:55:56;32.50;62.10
48162;DHT22;33950;48.154;16.316;2023-07-08T12:58:44;32.80;60.30
48162;DHT22;33950;48.154;16.316;2023-07-08T13:01:31;32.90;60.40
48162;DHT22;33950;48.154;16.316;2023-07-08T13:04:18;33.00;61.70
48162;DHT22;33950;48.154;16.316;2023-07-08T13:07:07;32.70;61.00
48162;DHT22;33950;48.154;16.316;2023-07-08T13:09:54;32.30;60.70
48162;DHT22;33950;48.154;16.316;2023-07-08T13:12:40;32.10;60.80
48162;DHT22;33950;48.154;16.316;2023-07-08T13:15:28;32.10;63.20
48162;DHT22;33950;48.154;16.316;2023-07-08T13:18:16;32.10;61.20
48162;DHT22;33950;48.154;16.316;2023-07-08T13:21:03;32.40;61.40
48162;DHT22;33950;48.154;16.316;2023-07-08T13:23:51;32.70;61.20
48162;DHT22;33950;48.154;16.316;2023-07-08T13:26:37;32.80;61.20
48162;DHT22;33950;48.154;16.316;2023-07-08T13:29:24;32.80;60.60
48162;DHT22;33950;48.154;16.316;2023-07-08T13:32:11;32.70;61.20
48162;DHT22;33950;48.154;16.316;2023-07-08T13:34:57;32.60;60.70
48162;DHT22;33950;48.154;16.316;2023-07-08T13:37:43;32.50;62.70
48162;DHT22;33950;48.154;16.316;2023-07-08T13:40:35;32.50;62.10
48162;DHT22;33950;48.154;16.316;2023-07-08T13:43:23;32.50;58.90
48162;DHT22;33950;48.154;16.316;2023-07-08T13:49:11;32.50;60.30
48162;DHT22;33950;48.154;16.316;2023-07-08T13:52:04;32.60;60.30
48162;DHT22;33950;48.154;16.316;2023-07-08T13:54:51;32.70;61.50
48162;DHT22;33950;48.154;16.316;2023-07-08T13:57:40;32.80;60.30
48162;DHT22;33950;48.154;16.316;2023-07-08T14:00:26;32.80;58.90
48162;DHT22;33950;48.154;16.316;2023-07-08T14:03:14;32.60;60.70
48162;DHT22;33950;48.154;16.316;2023-07-08T14:06:01;32.70;60.60
48162;DHT22;33950;48.154;16.316;2023-07-08T14:08:47;32.80;60.70
48162;DHT22;33950;48.154;16.316;2023-07-08T14:11:33;32.70;60.50
48162;DHT22;33950;48.154;16.316;2023-07-08T14:14:20;32.40;60.20
48162;DHT22;33950;48.154;16.316;2023-07-08T14:17:07;32.20;61.00
48162;DHT22;33950;48.154;16.316;2023-07-08T14:19:54;32.20;61.90
48162;DHT22;33950;48.154;16.316;2023-07-08T14:22:40;32.30;62.00
48162;DHT22;33950;48.154;16.316;2023-07-08T14:25:25;32.50;61.90
48162;DHT22;33950;48.154;16.316;2023-07-08T14:28:12;32.80;61.40
48162;DHT22;33950;48.154;16.316;2023-07-08T14:30:59;33.00;60.60
48162;DHT22;33950;48.154;16.316;2023-07-08T14:33:45;32.90;60.10
48162;DHT22;33950;48.154;16.316;2023-07-08T14:36:31;32.70;60.80
48162;DHT22;33950;48.154;16.316;2023-07-08T14:39:17;32.50;61.50
48162;DHT22;33950;48.154;16.316;2023-07-08T14:42:04;32.60;62.40
48162;DHT22;33950;48.154;16.316;2023-07-08T14:44:51;32.60;62.40
48162;DHT22;33950;48.154;16.316;2023-07-08T14:47:39;32.50;61.20
48162;DHT22;33950;48.154;16.316;2023-07-08T14:50:25;32.40;64.80
48162;DHT22;33950;48.154;16.316;2023-07-08T14:53:15;32.30;60.70
48162;DHT22;33950;48.154;16.316;2023-07-08T14:56:03;31.90;61.60
48162;DHT22;33950;48.154;16.316;2023-07-08T14:58:50;31.60;61.80
48162;DHT22;33950;48.154;16.316;2023-07-08T15:01:36;31.50;61.40
48162;DHT22;33950;48.154;16.316;2023-07-08T15:04:23;31.50;61.90
48162;DHT22;33950;48.154;16.316;2023-07-08T15:07:09;31.60;61.40
48162;DHT22;33950;48.154;16.316;2023-07-08T15:09:55;31.70;62.60
48162;DHT22;33950;48.154;16.316;2023-07-08T15:12:41;31.70;62.70
48162;DHT22;33950;48.154;16.316;2023-07-08T15:15:27;31.70;61.60
48162;DHT22;33950;48.154;16.316;2023-07-08T15:18:14;31.50;62.10
48162;DHT22;33950;48.154;16.316;2023-07-08T15:21:02;31.30;61.50
48162;DHT22;33950;48.154;16.316;2023-07-08T15:23:49;31.40;65.40
48162;DHT22;33950;48.154;16.316;2023-07-08T15:26:35;31.30;67.40
48162;DHT22;33950;48.154;16.316;2023-07-08T15:29:21;31.10;64.00
48162;DHT22;33950;48.154;16.316;2023-07-08T15:32:09;31.00;65.90
48162;DHT22;33950;48.154;16.316;2023-07-08T15:34:55;30.80;64.40
48162;DHT22;33950;48.154;16.316;2023-07-08T15:37:43;30.60;67.10
48162;DHT22;33950;48.154;16.316;2023-07-08T15:40:30;30.50;66.80
48162;DHT22;33950;48.154;16.316;2023-07-08T15:43:16;30.40;68.70
48162;DHT22;33950;48.154;16.316;2023-07-08T15:46:03;30.30;65.20
48162;DHT22;33950;48.154;16.316;2023-07-08T15:48:49;30.40;63.70
48162;DHT22;33950;48.154;16.316;2023-07-08T15:51:34;30.50;64.40
48162;DHT22;33950;48.154;16.316;2023-07-08T15:54:23;30.60;61.90
48162;DHT22;33950;48.154;16.316;2023-07-08T15:57:09;30.60;63.50
48162;DHT22;33950;48.154;16.316;2023-07-08T15:59:57;30.80;65.30
48162;DHT22;33950;48.154;16.316;2023-07-08T16:02:43;30.80;64.20
48162;DHT22;33950;48.154;16.316;2023-07-08T16:05:29;30.60;65.70
48162;DHT22;33950;48.154;16.316;2023-07-08T16:08:17;30.50;67.40
48162;DHT22;33950;48.154;16.316;2023-07-08T16:11:04;30.30;67.60
48162;DHT22;33950;48.154;16.316;2023-07-08T16:13:51;30.10;65.00
48162;DHT22;33950;48.154;16.316;2023-07-08T16:16:37;29.90;63.40
48162;DHT22;33950;48.154;16.316;2023-07-08T16:19:23;29.90;65.00
48162;DHT22;33950;48.154;16.316;2023-07-08T16:22:09;29.90;62.70
48162;DHT22;33950;48.154;16.316;2023-07-08T16:24:56;29.90;63.10
48162;DHT22;33950;48.154;16.316;2023-07-08T16:27:43;29.90;65.10
48162;DHT22;33950;48.154;16.316;2023-07-08T16:30:30;30.00;64.50
48162;DHT22;33950;48.154;16.316;2023-07-08T16:33:16;30.00;62.50
48162;DHT22;33950;48.154;16.316;2023-07-08T16:36:02;30.00;62.90
48162;DHT22;33950;48.154;16.316;2023-07-08T16:38:48;30.10;65.50
48162;DHT22;33950;48.154;16.316;2023-07-08T16:41:35;30.20;65.20
48162;DHT22;33950;48.154;16.316;2023-07-08T16:44:23;30.20;64.90
48162;DHT22;33950;48.154;16.316;2023-07-08T16:47:09;30.20;63.80
48162;DHT22;33950;48.154;16.316;2023-07-08T16:49:55;30.20;63.30
48162;DHT22;33950;48.154;16.316;2023-07-08T16:52:41;30.20;63.50
48162;DHT22;33950;48.154;16.316;2023-07-08T16:55:27;30.10;62.80
48162;DHT22;33950;48.154;16.316;2023-07-08T16:58:13;30.00;64.10
48162;DHT22;33950;48.154;16.316;2023-07-08T17:01:00;29.90;62.40
48162;DHT22;33950;48.154;16.316;2023-07-08T17:03:46;29.70;61.80
48162;DHT22;33950;48.154;16.316;2023-07-08T17:06:33;29.60;62.60
48162;DHT22;33950;48.154;16.316;2023-07-08T17:09:18;29.50;63.50
48162;DHT22;33950;48.154;16.316;2023-07-08T17:12:05;29.40;61.60
48162;DHT22;33950;48.154;16.316;2023-07-08T17:14:51;29.30;62.50
48162;DHT22;33950;48.154;16.316;2023-07-08T17:17:38;29.20;63.30
48162;DHT22;33950;48.154;16.316;2023-07-08T17:20:25;29.20;64.00
48162;DHT22;33950;48.154;16.316;2023-07-08T17:23:11;29.10;64.00
48162;DHT22;33950;48.154;16.316;2023-07-08T17:25:58;29.10;63.90